sensor_id;sensor_type;location;lat;lon;timestamp;temperature;humidity
46356;DHT22;32066;49.474;11.106;2023-04-03T00:01:25;10.20;72.00
46356;DHT22;32066;49.474;11.106;2023-04-03T00:03:54;10.20;72.00
46356;DHT22;32066;49.474;11.106;2023-04-03T00:06:23;10.20;71.60
46356;DHT22;32066;49.474;11.106;2023-04-03T00:08:52;10.20;71.60
46356;DHT22;32066;49.474;11.106;2023-04-03T00:11:21;10.10;71.80
46356;DHT22;32066;49.474;11.106;2023-04-03T00:13:49;10.10;71.90
46356;DHT22;32066;49.474;11.106;2023-04-03T00:16:20;10.20;72.10
46356;DHT22;32066;49.474;11.106;2023-04-03T00:18:49;10.10;71.70
46356;DHT22;32066;49.474;11.106;2023-04-03T00:21:18;10.10;71.70
46356;DHT22;32066;49.474;11.106;2023-04-03T00:23:46;10.10;72.00
46356;DHT22;32066;49.474;11.106;2023-04-03T00:26:15;10.00;71.80
46356;DHT22;32066;49.474;11.106;2023-04-03T00:28:45;10.00;71.90
46356;DHT22;32066;49.474;11.106;2023-04-03T00:31:14;10.10;71.90
46356;DHT22;32066;49.474;11.106;2023-04-03T00:33:46;10.10;71.90
46356;DHT22;32066;49.474;11.106;2023-04-03T00:36:15;10.00;71.90
46356;DHT22;32066;49.474;11.106;2023-04-03T00:38:44;10.00;72.00
46356;DHT22;32066;49.474;11.106;2023-04-03T00:41:13;10.00;71.90
46356;DHT22;32066;49.474;11.106;2023-04-03T00:43:41;10.00;72.00
46356;DHT22;32066;49.474;11.106;2023-04-03T00:46:10;10.00;72.00
46356;DHT22;32066;49.474;11.106;2023-04-03T00:48:41;10.00;72.00
46356;DHT22;32066;49.474;11.106;2023-04-03T00:51:16;10.00;71.90
46356;DHT22;32066;49.474;11.106;2023-04-03T00:53:47;10.00;71.90
46356;DHT22;32066;49.474;11.106;2023-04-03T00:56:21;10.00;71.80
46356;DHT22;32066;49.474;11.106;2023-04-03T00:58:52;9.90;72.00
46356;DHT22;32066;49.474;11.106;2023-04-03T01:01:25;9.90;71.80
46356;DHT22;32066;49.474;11.106;2023-04-03T01:03:54;9.90;71.90
46356;DHT22;32066;49.474;11.106;2023-04-03T01:06:29;9.90;71.90
46356;DHT22;32066;49.474;11.106;2023-04-03T01:09:05;9.90;72.10
46356;DHT22;32066;49.474;11.106;2023-04-03T01:11:33;9.90;71.80
46356;DHT22;32066;49.474;11.106;2023-04-03T01:14:02;9.90;71.70
46356;DHT22;32066;49.474;11.106;2023-04-03T01:16:32;9.90;72.00
46356;DHT22;32066;49.474;11.106;2023-04-03T01:19:01;9.90;72.10
46356;DHT22;32066;49.474;11.106;2023-04-03T01:21:58;9.80;72.10
46356;DHT22;32066;49.474;11.106;2023-04-03T01:24:35;9.80;72.10
46356;DHT22;32066;49.474;11.106;2023-04-03T01:27:09;9.90;71.90
46356;DHT22;32066;49.474;11.106;2023-04-03T01:29:40;9.80;71.90
46356;DHT22;32066;49.474;11.106;2023-04-03T01:32:12;9.80;71.70
46356;DHT22;32066;49.474;11.106;2023-04-03T01:34:41;9.80;71.70
46356;DHT22;32066;49.474;11.106;2023-04-03T01:37:10;9.80;71.70
46356;DHT22;32066;49.474;11.106;2023-04-03T01:39:39;9.80;71.70
46356;DHT22;32066;49.474;11.106;2023-04-03T01:42:08;9.80;71.40
46356;DHT22;32066;49.474;11.106;2023-04-03T01:44:39;9.80;71.60
46356;DHT22;32066;49.474;11.106;2023-04-03T01:47:11;9.70;71.50
46356;DHT22;32066;49.474;11.106;2023-04-03T01:49:40;9.70;71.40
46356;DHT22;32066;49.474;11.106;2023-04-03T01:52:09;9.70;71.40
46356;DHT22;32066;49.474;11.106;2023-04-03T01:54:38;9.70;71.30
46356;DHT22;32066;49.474;11.106;2023-04-03T01:57:06;9.70;71.30
46356;DHT22;32066;49.474;11.106;2023-04-03T01:59:36;9.70;71.30
46356;DHT22;32066;49.474;11.106;2023-04-03T02:02:06;9.70;71.30
46356;DHT22;32066;49.474;11.106;2023-04-03T02:04:38;9.70;71.50
46356;DHT22;32066;49.474;11.106;2023-04-03T02:07:06;9.60;71.50
46356;DHT22;32066;49.474;11.106;2023-04-03T02:09:35;9.70;71.40
46356;DHT22;32066;49.474;11.106;2023-04-03T02:12:04;9.60;71.40
46356;DHT22;32066;49.474;11.106;2023-04-03T02:14:33;9.60;71.40
46356;DHT22;32066;49.474;11.106;2023-04-03T02:17:02;9.60;71.60
46356;DHT22;32066;49.474;11.106;2023-04-03T02:19:36;9.60;71.60
46356;DHT22;32066;49.474;11.106;2023-04-03T02:22:05;9.60;71.60
46356;DHT22;32066;49.474;11.106;2023-04-03T02:24:35;9.60;71.60
46356;DHT22;32066;49.474;11.106;2023-04-03T02:27:04;9.60;71.60
46356;DHT22;32066;49.474;11.106;2023-04-03T02:29:33;9.50;72.00
46356;DHT22;32066;49.474;11.106;2023-04-03T02:32:02;9.50;71.50
46356;DHT22;32066;49.474;11.106;2023-04-03T02:34:31;9.50;71.50
46356;DHT22;32066;49.474;11.106;2023-04-03T02:37:04;9.40;71.60
46356;DHT22;32066;49.474;11.106;2023-04-03T02:39:32;9.50;71.70
46356;DHT22;32066;49.474;11.106;2023-04-03T02:42:01;9.40;71.80
46356;DHT22;32066;49.474;11.106;2023-04-03T02:44:30;9.40;71.80
46356;DHT22;32066;49.474;11.106;2023-04-03T02:46:59;9.40;71.60
46356;DHT22;32066;49.474;11.106;2023-04-03T02:49:28;9.40;71.90
46356;DHT22;32066;49.474;11.106;2023-04-03T02:51:57;9.40;71.70
46356;DHT22;32066;49.474;11.106;2023-04-03T02:54:28;9.40;71.90
46356;DHT22;32066;49.474;11.106;2023-04-03T02:57:00;9.40;71.90
46356;DHT22;32066;49.474;11.106;2023-04-03T02:59:29;9.30;71.80
46356;DHT22;32066;49.474;11.106;2023-04-03T03:01:58;9.30;71.60
46356;DHT22;32066;49.474;11.106;2023-04-03T03:04:26;9.30;71.70
46356;DHT22;32066;49.474;11.106;2023-04-03T03:06:56;9.30;72.00
46356;DHT22;32066;49.474;11.106;2023-04-03T03:09:25;9.30;72.00
46356;DHT22;32066;49.474;11.106;2023-04-03T03:11:56;9.30;72.80
46356;DHT22;32066;49.474;11.106;2023-04-03T03:14:25;9.30;72.20
46356;DHT22;32066;49.474;11.106;2023-04-03T03:16:54;9.20;72.10
46356;DHT22;32066;49.474;11.106;2023-04-03T03:19:22;9.20;72.30
46356;DHT22;32066;49.474;11.106;2023-04-03T03:21:51;9.20;72.30
46356;DHT22;32066;49.474;11.106;2023-04-03T03:24:22;9.20;72.20
46356;DHT22;32066;49.474;11.106;2023-04-03T03:26:50;9.10;72.20
46356;DHT22;32066;49.474;11.106;2023-04-03T03:29:22;9.10;72.10
46356;DHT22;32066;49.474;11.106;2023-04-03T03:31:51;9.10;72.20
46356;DHT22;32066;49.474;11.106;2023-04-03T03:34:20;9.20;73.80
46356;DHT22;32066;49.474;11.106;2023-04-03T03:36:48;9.10;75.20
46356;DHT22;32066;49.474;11.106;2023-04-03T03:39:17;9.10;75.40
46356;DHT22;32066;49.474;11.106;2023-04-03T03:41:46;9.10;75.60
46356;DHT22;32066;49.474;11.106;2023-04-03T03:44:15;9.10;76.00
46356;DHT22;32066;49.474;11.106;2023-04-03T03:46:47;9.10;76.40
46356;DHT22;32066;49.474;11.106;2023-04-03T03:49:15;9.10;76.10
46356;DHT22;32066;49.474;11.106;2023-04-03T03:51:44;9.10;76.50
46356;DHT22;32066;49.474;11.106;2023-04-03T03:54:13;9.10;75.90
46356;DHT22;32066;49.474;11.106;2023-04-03T03:56:42;9.00;76.00
46356;DHT22;32066;49.474;11.106;2023-04-03T03:59:12;9.00;76.00
46356;DHT22;32066;49.474;11.106;2023-04-03T04:01:41;9.00;75.90
46356;DHT22;32066;49.474;11.106;2023-04-03T04:04:12;9.00;76.00
46356;DHT22;32066;49.474;11.106;2023-04-03T04:06:41;9.00;75.90
46356;DHT22;32066;49.474;11.106;2023-04-03T04:09:10;9.00;76.10
46356;DHT22;32066;49.474;11.106;2023-04-03T04:11:39;9.00;76.10
46356;DHT22;32066;49.474;11.106;2023-04-03T04:14:10;9.00;76.00
46356;DHT22;32066;49.474;11.106;2023-04-03T04:16:41;9.00;76.10
46356;DHT22;32066;49.474;11.106;2023-04-03T04:19:17;9.00;76.10
46356;DHT22;32066;49.474;11.106;2023-04-03T04:21:46;9.00;76.20
46356;DHT22;32066;49.474;11.106;2023-04-03T04:24:15;8.90;76.20
46356;DHT22;32066;49.474;11.106;2023-04-03T04:26:44;8.90;76.20
46356;DHT22;32066;49.474;11.106;2023-04-03T04:29:15;8.90;76.40
46356;DHT22;32066;49.474;11.106;2023-04-03T04:31:47;9.00;76.20
46356;DHT22;32066;49.474;11.106;2023-04-03T04:34:19;8.90;76.20
46356;DHT22;32066;49.474;11.106;2023-04-03T04:36:48;9.00;76.20
46356;DHT22;32066;49.474;11.106;2023-04-03T04:39:16;9.00;76.10
46356;DHT22;32066;49.474;11.106;2023-04-03T04:41:45;9.00;76.00
46356;DHT22;32066;49.474;11.106;2023-04-03T04:44:14;8.90;75.90
46356;DHT22;32066;49.474;11.106;2023-04-03T04:46:43;8.90;76.00
46356;DHT22;32066;49.474;11.106;2023-04-03T04:49:11;8.90;76.10
46356;DHT22;32066;49.474;11.106;2023-04-03T04:51:43;8.90;76.10
46356;DHT22;32066;49.474;11.106;2023-04-03T04:54:13;8.90;76.10
46356;DHT22;32066;49.474;11.106;2023-04-03T04:56:42;8.90;76.10
46356;DHT22;32066;49.474;11.106;2023-04-03T04:59:11;8.90;76.20
46356;DHT22;32066;49.474;11.106;2023-04-03T05:01:40;8.90;76.20
46356;DHT22;32066;49.474;11.106;2023-04-03T05:04:14;8.90;76.20
46356;DHT22;32066;49.474;11.106;2023-04-03T05:06:48;8.80;76.40
46356;DHT22;32066;49.474;11.106;2023-04-03T05:09:21;8.90;76.60
46356;DHT22;32066;49.474;11.106;2023-04-03T05:11:52;8.80;76.60
46356;DHT22;32066;49.474;11.106;2023-04-03T05:14:24;8.80;76.60
46356;DHT22;32066;49.474;11.106;2023-04-03T05:16:56;8.80;76.70
46356;DHT22;32066;49.474;11.106;2023-04-03T05:19:28;8.80;76.60
46356;DHT22;32066;49.474;11.106;2023-04-03T05:22:00;8.80;76.60
46356;DHT22;32066;49.474;11.106;2023-04-03T05:24:29;8.80;76.70
46356;DHT22;32066;49.474;11.106;2023-04-03T05:26:59;8.80;76.60
46356;DHT22;32066;49.474;11.106;2023-04-03T05:29:28;8.80;76.70
46356;DHT22;32066;49.474;11.106;2023-04-03T05:31:58;8.80;76.70
46356;DHT22;32066;49.474;11.106;2023-04-03T05:34:27;8.80;76.80
46356;DHT22;32066;49.474;11.106;2023-04-03T05:36:56;8.90;76.80
46356;DHT22;32066;49.474;11.106;2023-04-03T05:39:30;8.90;76.80
46356;DHT22;32066;49.474;11.106;2023-04-03T05:42:01;8.90;76.80
46356;DHT22;32066;49.474;11.106;2023-04-03T05:44:29;8.90;76.80
46356;DHT22;32066;49.474;11.106;2023-04-03T05:46:58;8.90;76.80
46356;DHT22;32066;49.474;11.106;2023-04-03T05:49:27;8.90;77.00
46356;DHT22;32066;49.474;11.106;2023-04-03T05:51:56;8.90;77.00
46356;DHT22;32066;49.474;11.106;2023-04-03T05:54:31;8.90;77.00
46356;DHT22;32066;49.474;11.106;2023-04-03T05:57:15;8.90;77.00
46356;DHT22;32066;49.474;11.106;2023-04-03T05:59:45;8.90;76.90
46356;DHT22;32066;49.474;11.106;2023-04-03T06:02:17;8.90;77.00
46356;DHT22;32066;49.474;11.106;2023-04-03T06:04:47;8.90;77.10
46356;DHT22;32066;49.474;11.106;2023-04-03T06:07:18;8.90;77.00
46356;DHT22;32066;49.474;11.106;2023-04-03T06:09:51;8.90;76.90
46356;DHT22;32066;49.474;11.106;2023-04-03T06:12:22;8.90;77.00
46356;DHT22;32066;49.474;11.106;2023-04-03T06:14:51;9.00;77.00
46356;DHT22;32066;49.474;11.106;2023-04-03T06:17:20;9.00;77.20
46356;DHT22;32066;49.474;11.106;2023-04-03T06:19:49;9.00;77.20
46356;DHT22;32066;49.474;11.106;2023-04-03T06:22:18;9.00;77.20
46356;DHT22;32066;49.474;11.106;2023-04-03T06:24:47;9.00;77.20
46356;DHT22;32066;49.474;11.106;2023-04-03T06:27:18;9.00;77.30
46356;DHT22;32066;49.474;11.106;2023-04-03T06:29:47;9.00;77.10
46356;DHT22;32066;49.474;11.106;2023-04-03T06:32:16;9.10;77.30
46356;DHT22;32066;49.474;11.106;2023-04-03T06:34:45;9.10;77.20
46356;DHT22;32066;49.474;11.106;2023-04-03T06:37:20;9.10;77.20
46356;DHT22;32066;49.474;11.106;2023-04-03T06:39:51;9.10;77.10
46356;DHT22;32066;49.474;11.106;2023-04-03T06:42:23;9.10;77.00
46356;DHT22;32066;49.474;11.106;2023-04-03T06:45:04;9.20;77.20
46356;DHT22;32066;49.474;11.106;2023-04-03T06:47:33;9.20;77.10
46356;DHT22;32066;49.474;11.106;2023-04-03T06:50:02;9.20;77.00
46356;DHT22;32066;49.474;11.106;2023-04-03T06:52:32;9.30;77.10
46356;DHT22;32066;49.474;11.106;2023-04-03T06:55:01;9.30;76.90
46356;DHT22;32066;49.474;11.106;2023-04-03T06:57:32;9.30;77.00
46356;DHT22;32066;49.474;11.106;2023-04-03T07:00:01;9.30;76.90
46356;DHT22;32066;49.474;11.106;2023-04-03T07:02:29;9.30;76.80
46356;DHT22;32066;49.474;11.106;2023-04-03T07:04:58;9.40;76.70
46356;DHT22;32066;49.474;11.106;2023-04-03T07:07:27;9.40;76.80
46356;DHT22;32066;49.474;11.106;2023-04-03T07:09:56;9.50;76.80
46356;DHT22;32066;49.474;11.106;2023-04-03T07:12:24;9.50;76.70
46356;DHT22;32066;49.474;11.106;2023-04-03T07:14:56;9.50;76.70
46356;DHT22;32066;49.474;11.106;2023-04-03T07:17:25;9.60;76.50
46356;DHT22;32066;49.474;11.106;2023-04-03T07:19:53;9.60;76.20
46356;DHT22;32066;49.474;11.106;2023-04-03T07:22:22;9.70;76.10
46356;DHT22;32066;49.474;11.106;2023-04-03T07:24:51;9.70;76.10
46356;DHT22;32066;49.474;11.106;2023-04-03T07:27:19;9.70;76.10
46356;DHT22;32066;49.474;11.106;2023-04-03T07:29:48;9.80;76.00
46356;DHT22;32066;49.474;11.106;2023-04-03T07:32:19;9.80;75.70
46356;DHT22;32066;49.474;11.106;2023-04-03T07:34:48;9.80;75.60
46356;DHT22;32066;49.474;11.106;2023-04-03T07:37:16;9.90;75.30
46356;DHT22;32066;49.474;11.106;2023-04-03T07:39:46;9.90;75.50
46356;DHT22;32066;49.474;11.106;2023-04-03T07:42:14;9.90;75.50
46356;DHT22;32066;49.474;11.106;2023-04-03T07:44:43;10.00;75.60
46356;DHT22;32066;49.474;11.106;2023-04-03T07:47:13;10.10;75.10
46356;DHT22;32066;49.474;11.106;2023-04-03T07:49:45;10.10;75.10
46356;DHT22;32066;49.474;11.106;2023-04-03T07:52:14;10.10;75.00
46356;DHT22;32066;49.474;11.106;2023-04-03T07:54:43;10.20;75.20
46356;DHT22;32066;49.474;11.106;2023-04-03T07:57:11;10.20;75.80
46356;DHT22;32066;49.474;11.106;2023-04-03T07:59:40;10.30;75.30
46356;DHT22;32066;49.474;11.106;2023-04-03T08:02:09;10.30;75.10
46356;DHT22;32066;49.474;11.106;2023-04-03T08:04:38;10.40;76.20
46356;DHT22;32066;49.474;11.106;2023-04-03T08:07:09;10.50;75.50
46356;DHT22;32066;49.474;11.106;2023-04-03T08:09:38;10.50;76.00
46356;DHT22;32066;49.474;11.106;2023-04-03T08:12:07;10.60;76.30
46356;DHT22;32066;49.474;11.106;2023-04-03T08:14:37;10.70;77.20
46356;DHT22;32066;49.474;11.106;2023-04-03T08:17:06;10.70;78.70
46356;DHT22;32066;49.474;11.106;2023-04-03T08:19:37;10.80;78.20
46356;DHT22;32066;49.474;11.106;2023-04-03T08:22:09;10.90;78.80
46356;DHT22;32066;49.474;11.106;2023-04-03T08:24:37;10.90;78.50
46356;DHT22;32066;49.474;11.106;2023-04-03T08:27:06;11.00;79.50
46356;DHT22;32066;49.474;11.106;2023-04-03T08:29:35;11.10;80.30
46356;DHT22;32066;49.474;11.106;2023-04-03T08:32:04;11.20;80.90
46356;DHT22;32066;49.474;11.106;2023-04-03T08:34:32;11.20;80.90
46356;DHT22;32066;49.474;11.106;2023-04-03T08:37:02;11.20;80.00
46356;DHT22;32066;49.474;11.106;2023-04-03T08:39:33;11.30;79.30
46356;DHT22;32066;49.474;11.106;2023-04-03T08:42:07;11.30;80.90
46356;DHT22;32066;49.474;11.106;2023-04-03T08:44:47;11.40;79.50
46356;DHT22;32066;49.474;11.106;2023-04-03T08:47:22;11.40;77.70
46356;DHT22;32066;49.474;11.106;2023-04-03T08:49:53;11.40;79.20
46356;DHT22;32066;49.474;11.106;2023-04-03T08:52:31;11.50;77.50
46356;DHT22;32066;49.474;11.106;2023-04-03T08:55:07;11.50;76.50
46356;DHT22;32066;49.474;11.106;2023-04-03T08:57:44;11.50;77.50
46356;DHT22;32066;49.474;11.106;2023-04-03T09:00:18;11.60;76.90
46356;DHT22;32066;49.474;11.106;2023-04-03T09:02:49;11.70;73.20
46356;DHT22;32066;49.474;11.106;2023-04-03T09:05:19;11.80;72.40
46356;DHT22;32066;49.474;11.106;2023-04-03T09:07:54;11.90;72.40
46356;DHT22;32066;49.474;11.106;2023-04-03T09:10:32;11.90;73.10
46356;DHT22;32066;49.474;11.106;2023-04-03T09:13:05;11.90;74.50
46356;DHT22;32066;49.474;11.106;2023-04-03T09:15:35;11.90;75.40
46356;DHT22;32066;49.474;11.106;2023-04-03T09:18:06;11.90;73.40
46356;DHT22;32066;49.474;11.106;2023-04-03T09:20:44;11.90;72.90
46356;DHT22;32066;49.474;11.106;2023-04-03T09:23:21;11.90;70.90
46356;DHT22;32066;49.474;11.106;2023-04-03T09:25:58;11.90;69.80
46356;DHT22;32066;49.474;11.106;2023-04-03T09:28:32;11.90;70.20
46356;DHT22;32066;49.474;11.106;2023-04-03T09:31:05;11.90;70.80
46356;DHT22;32066;49.474;11.106;2023-04-03T09:33:40;11.90;70.70
46356;DHT22;32066;49.474;11.106;2023-04-03T09:36:09;11.90;71.70
46356;DHT22;32066;49.474;11.106;2023-04-03T09:38:37;11.90;69.70
46356;DHT22;32066;49.474;11.106;2023-04-03T09:41:16;11.90;69.60
46356;DHT22;32066;49.474;11.106;2023-04-03T09:43:52;12.00;70.20
46356;DHT22;32066;49.474;11.106;2023-04-03T09:46:28;12.00;70.50
46356;DHT22;32066;49.474;11.106;2023-04-03T09:48:59;12.10;70.10
46356;DHT22;32066;49.474;11.106;2023-04-03T09:51:28;12.20;69.80
46356;DHT22;32066;49.474;11.106;2023-04-03T09:54:00;12.20;70.10
46356;DHT22;32066;49.474;11.106;2023-04-03T09:56:53;12.30;67.80
46356;DHT22;32066;49.474;11.106;2023-04-03T09:59:21;12.30;67.50
46356;DHT22;32066;49.474;11.106;2023-04-03T10:01:58;12.40;67.10
46356;DHT22;32066;49.474;11.106;2023-04-03T10:04:38;12.40;68.00
46356;DHT22;32066;49.474;11.106;2023-04-03T10:07:28;12.50;67.90
46356;DHT22;32066;49.474;11.106;2023-04-03T10:09:59;12.50;68.70
46356;DHT22;32066;49.474;11.106;2023-04-03T10:12:31;12.50;67.80
46356;DHT22;32066;49.474;11.106;2023-04-03T10:15:00;12.50;68.20
46356;DHT22;32066;49.474;11.106;2023-04-03T10:17:48;12.50;67.60
46356;DHT22;32066;49.474;11.106;2023-04-03T10:20:31;12.50;68.80
46356;DHT22;32066;49.474;11.106;2023-04-03T10:23:15;12.50;67.00
46356;DHT22;32066;49.474;11.106;2023-04-03T10:25:55;12.60;67.20
46356;DHT22;32066;49.474;11.106;2023-04-03T10:28:34;12.60;67.50
46356;DHT22;32066;49.474;11.106;2023-04-03T10:31:08;12.70;68.40
46356;DHT22;32066;49.474;11.106;2023-04-03T10:33:54;12.80;68.30
46356;DHT22;32066;49.474;11.106;2023-04-03T10:36:33;12.90;67.90
46356;DHT22;32066;49.474;11.106;2023-04-03T10:39:13;12.90;67.90
46356;DHT22;32066;49.474;11.106;2023-04-03T10:41:53;13.00;67.60
46356;DHT22;32066;49.474;11.106;2023-04-03T10:44:34;13.00;67.20
46356;DHT22;32066;49.474;11.106;2023-04-03T10:47:11;13.00;67.40
46356;DHT22;32066;49.474;11.106;2023-04-03T10:49:51;13.10;66.80
46356;DHT22;32066;49.474;11.106;2023-04-03T10:52:28;13.10;66.50
46356;DHT22;32066;49.474;11.106;2023-04-03T10:55:05;13.10;65.80
46356;DHT22;32066;49.474;11.106;2023-04-03T10:57:34;13.10;65.50
46356;DHT22;32066;49.474;11.106;2023-04-03T11:00:07;13.20;65.70
46356;DHT22;32066;49.474;11.106;2023-04-03T11:02:49;13.20;64.90
46356;DHT22;32066;49.474;11.106;2023-04-03T11:05:36;13.20;64.80
46356;DHT22;32066;49.474;11.106;2023-04-03T11:08:12;13.20;65.10
46356;DHT22;32066;49.474;11.106;2023-04-03T11:10:42;13.20;64.80
46356;DHT22;32066;49.474;11.106;2023-04-03T11:13:13;13.30;64.70
46356;DHT22;32066;49.474;11.106;2023-04-03T11:18:18;13.60;64.20
46356;DHT22;32066;49.474;11.106;2023-04-03T11:20:53;13.70;64.40
46356;DHT22;32066;49.474;11.106;2023-04-03T11:23:25;13.70;63.80
46356;DHT22;32066;49.474;11.106;2023-04-03T11:25:57;13.70;63.60
46356;DHT22;32066;49.474;11.106;2023-04-03T11:28:27;13.70;63.30
46356;DHT22;32066;49.474;11.106;2023-04-03T11:31:10;13.80;63.20
46356;DHT22;32066;49.474;11.106;2023-04-03T11:33:47;13.90;63.40
46356;DHT22;32066;49.474;11.106;2023-04-03T11:36:21;14.20;63.90
46356;DHT22;32066;49.474;11.106;2023-04-03T11:38:52;14.50;63.60
46356;DHT22;32066;49.474;11.106;2023-04-03T11:41:27;14.70;62.70
46356;DHT22;32066;49.474;11.106;2023-04-03T11:43:59;15.10;61.60
46356;DHT22;32066;49.474;11.106;2023-04-03T11:46:55;15.30;61.90
46356;DHT22;32066;49.474;11.106;2023-04-03T11:55:41;15.80;60.70
46356;DHT22;32066;49.474;11.106;2023-04-03T11:58:16;15.70;60.00
46356;DHT22;32066;49.474;11.106;2023-04-03T12:01:06;15.60;59.80
46356;DHT22;32066;49.474;11.106;2023-04-03T12:04:08;15.60;59.40
46356;DHT22;32066;49.474;11.106;2023-04-03T12:10:12;16.00;59.60
46356;DHT22;32066;49.474;11.106;2023-04-03T12:12:42;16.40;59.60
46356;DHT22;32066;49.474;11.106;2023-04-03T12:21:23;16.60;58.60
46356;DHT22;32066;49.474;11.106;2023-04-03T12:24:02;16.60;58.60
46356;DHT22;32066;49.474;11.106;2023-04-03T12:26:36;16.70;58.80
46356;DHT22;32066;49.474;11.106;2023-04-03T12:29:15;16.80;58.80
46356;DHT22;32066;49.474;11.106;2023-04-03T12:31:55;16.80;58.90
46356;DHT22;32066;49.474;11.106;2023-04-03T12:34:41;16.80;58.80
46356;DHT22;32066;49.474;11.106;2023-04-03T12:37:26;16.70;58.50
46356;DHT22;32066;49.474;11.106;2023-04-03T12:40:10;16.60;58.40
46356;DHT22;32066;49.474;11.106;2023-04-03T12:42:59;16.50;58.30
46356;DHT22;32066;49.474;11.106;2023-04-03T12:45:41;16.70;58.90
46356;DHT22;32066;49.474;11.106;2023-04-03T12:48:15;17.00;59.30
46356;DHT22;32066;49.474;11.106;2023-04-03T12:50:46;17.20;59.30
46356;DHT22;32066;49.474;11.106;2023-04-03T12:53:19;17.50;58.90
46356;DHT22;32066;49.474;11.106;2023-04-03T12:55:54;17.80;58.80
46356;DHT22;32066;49.474;11.106;2023-04-03T12:58:25;18.10;58.90
46356;DHT22;32066;49.474;11.106;2023-04-03T13:01:02;18.20;58.00
46356;DHT22;32066;49.474;11.106;2023-04-03T13:03:31;18.20;57.50
46356;DHT22;32066;49.474;11.106;2023-04-03T13:06:01;18.30;57.30
46356;DHT22;32066;49.474;11.106;2023-04-03T13:08:33;18.40;57.00
46356;DHT22;32066;49.474;11.106;2023-04-03T13:11:03;18.50;57.10
46356;DHT22;32066;49.474;11.106;2023-04-03T13:13:34;18.70;57.20
46356;DHT22;32066;49.474;11.106;2023-04-03T13:16:08;18.90;56.90
46356;DHT22;32066;49.474;11.106;2023-04-03T13:18:39;19.10;57.60
46356;DHT22;32066;49.474;11.106;2023-04-03T13:21:13;19.30;56.10
46356;DHT22;32066;49.474;11.106;2023-04-03T13:23:48;19.50;56.90
46356;DHT22;32066;49.474;11.106;2023-04-03T13:26:19;19.70;56.10
46356;DHT22;32066;49.474;11.106;2023-04-03T13:28:48;19.90;56.30
46356;DHT22;32066;49.474;11.106;2023-04-03T13:31:20;20.10;55.60
46356;DHT22;32066;49.474;11.106;2023-04-03T13:33:56;20.20;55.90
46356;DHT22;32066;49.474;11.106;2023-04-03T13:36:29;20.40;55.70
46356;DHT22;32066;49.474;11.106;2023-04-03T13:39:04;20.40;53.70
46356;DHT22;32066;49.474;11.106;2023-04-03T13:41:35;20.30;54.10
46356;DHT22;32066;49.474;11.106;2023-04-03T13:44:33;20.20;53.40
46356;DHT22;32066;49.474;11.106;2023-04-03T13:47:16;20.20;53.90
46356;DHT22;32066;49.474;11.106;2023-04-03T13:49:46;20.20;53.20
46356;DHT22;32066;49.474;11.106;2023-04-03T13:52:28;20.40;54.40
46356;DHT22;32066;49.474;11.106;2023-04-03T13:55:03;20.50;54.20
46356;DHT22;32066;49.474;11.106;2023-04-03T13:57:49;20.70;54.30
46356;DHT22;32066;49.474;11.106;2023-04-03T14:00:28;20.90;53.40
46356;DHT22;32066;49.474;11.106;2023-04-03T14:02:57;21.00;52.70
46356;DHT22;32066;49.474;11.106;2023-04-03T14:05:26;21.00;51.90
46356;DHT22;32066;49.474;11.106;2023-04-03T14:07:55;20.90;53.00
46356;DHT22;32066;49.474;11.106;2023-04-03T14:10:27;21.00;52.60
46356;DHT22;32066;49.474;11.106;2023-04-03T14:12:56;21.00;51.00
46356;DHT22;32066;49.474;11.106;2023-04-03T14:15:27;20.80;49.40
46356;DHT22;32066;49.474;11.106;2023-04-03T14:17:56;20.70;50.70
46356;DHT22;32066;49.474;11.106;2023-04-03T14:20:26;20.60;50.40
46356;DHT22;32066;49.474;11.106;2023-04-03T14:22:55;20.60;50.90
46356;DHT22;32066;49.474;11.106;2023-04-03T14:25:26;20.50;50.10
46356;DHT22;32066;49.474;11.106;2023-04-03T14:27:55;20.40;50.50
46356;DHT22;32066;49.474;11.106;2023-04-03T14:30:28;20.30;50.90
46356;DHT22;32066;49.474;11.106;2023-04-03T14:32:57;20.40;50.80
46356;DHT22;32066;49.474;11.106;2023-04-03T14:35:27;20.50;51.00
46356;DHT22;32066;49.474;11.106;2023-04-03T14:37:56;20.60;51.30
46356;DHT22;32066;49.474;11.106;2023-04-03T14:40:27;20.60;50.10
46356;DHT22;32066;49.474;11.106;2023-04-03T14:42:56;20.60;50.70
46356;DHT22;32066;49.474;11.106;2023-04-03T14:45:25;20.50;49.60
46356;DHT22;32066;49.474;11.106;2023-04-03T14:47:55;20.30;48.80
46356;DHT22;32066;49.474;11.106;2023-04-03T14:50:25;20.20;49.10
46356;DHT22;32066;49.474;11.106;2023-04-03T14:52:56;20.00;49.20
46356;DHT22;32066;49.474;11.106;2023-04-03T14:55:29;20.00;48.80
46356;DHT22;32066;49.474;11.106;2023-04-03T14:57:57;20.00;48.60
46356;DHT22;32066;49.474;11.106;2023-04-03T15:00:26;19.90;48.80
46356;DHT22;32066;49.474;11.106;2023-04-03T15:02:55;19.80;48.70
46356;DHT22;32066;49.474;11.106;2023-04-03T15:05:23;19.70;48.10
46356;DHT22;32066;49.474;11.106;2023-04-03T15:07:54;19.70;48.00
46356;DHT22;32066;49.474;11.106;2023-04-03T15:10:25;19.50;47.70
46356;DHT22;32066;49.474;11.106;2023-04-03T15:12:57;19.40;46.70
46356;DHT22;32066;49.474;11.106;2023-04-03T15:15:29;19.30;46.00
46356;DHT22;32066;49.474;11.106;2023-04-03T15:17:58;19.10;45.80
46356;DHT22;32066;49.474;11.106;2023-04-03T15:20:28;19.00;44.90
46356;DHT22;32066;49.474;11.106;2023-04-03T15:22:59;19.00;47.30
46356;DHT22;32066;49.474;11.106;2023-04-03T15:25:30;19.00;47.70
46356;DHT22;32066;49.474;11.106;2023-04-03T15:28:02;19.10;48.20
46356;DHT22;32066;49.474;11.106;2023-04-03T15:30:31;19.20;48.00
46356;DHT22;32066;49.474;11.106;2023-04-03T15:33:00;19.30;47.90
46356;DHT22;32066;49.474;11.106;2023-04-03T15:35:28;19.50;47.70
46356;DHT22;32066;49.474;11.106;2023-04-03T15:37:57;19.60;48.00
46356;DHT22;32066;49.474;11.106;2023-04-03T15:40:25;19.60;48.30
46356;DHT22;32066;49.474;11.106;2023-04-03T15:42:54;19.60;48.30
46356;DHT22;32066;49.474;11.106;2023-04-03T15:45:29;19.40;47.40
46356;DHT22;32066;49.474;11.106;2023-04-03T15:47:58;19.30;47.20
46356;DHT22;32066;49.474;11.106;2023-04-03T15:50:27;19.20;47.60
46356;DHT22;32066;49.474;11.106;2023-04-03T15:52:56;19.20;46.70
46356;DHT22;32066;49.474;11.106;2023-04-03T15:55:26;19.00;46.60
46356;DHT22;32066;49.474;11.106;2023-04-03T15:57:55;19.00;47.30
46356;DHT22;32066;49.474;11.106;2023-04-03T16:00:27;19.00;47.60
46356;DHT22;32066;49.474;11.106;2023-04-03T16:02:59;19.00;47.60
46356;DHT22;32066;49.474;11.106;2023-04-03T16:05:30;19.00;47.30
46356;DHT22;32066;49.474;11.106;2023-04-03T16:07:59;19.10;47.60
46356;DHT22;32066;49.474;11.106;2023-04-03T16:10:29;19.20;48.00